Time;durP1;ratioP1;P1;durP2;ratioP2;P2;SDS_P1;SDS_P2;PMS_P1;PMS_P2;Temp;Humidity;BMP_temperature;BMP_pressure;BME280_temperature;BME280_humidity;BME280_pressure;Samples;Min_cycle;Max_cycle;Signal;HPM_P1;HPM_P2
2022/07/11 00:02:13;;;;;;;2.80;1.42;;;11.00;99.90;;;;;;5049407;28;20457;-51
2022/07/11 00:04:40;;;;;;;4.78;1.88;;;11.00;99.90;;;;;;5031736;28;20499;-50
2022/07/11 00:07:06;;;;;;;2.50;1.75;;;11.00;99.90;;;;;;5049243;28;20025;-51
2022/07/11 00:09:32;;;;;;;5.88;1.50;;;10.90;99.90;;;;;;5049735;28;20021;-54
2022/07/11 00:12:00;;;;;;;1.35;1.20;;;10.90;99.90;;;;;;5049228;28;20428;-53
2022/07/11 00:14:26;;;;;;;2.30;1.10;;;10.90;99.90;;;;;;5031597;28;20021;-50
2022/07/11 00:16:52;;;;;;;3.25;1.63;;;10.90;99.90;;;;;;5027803;28;20108;-49
2022/07/11 00:19:19;;;;;;;3.85;1.48;;;10.80;99.90;;;;;;5049616;28;20074;-52
2022/07/11 00:21:45;;;;;;;4.68;1.50;;;10.80;99.90;;;;;;5048919;28;20024;-54
2022/07/11 00:24:11;;;;;;;5.35;1.80;;;10.80;99.90;;;;;;5049243;28;20036;-53
2022/07/11 00:26:37;;;;;;;5.00;2.28;;;10.80;99.90;;;;;;5063373;22;20052;-47
2022/07/11 00:29:03;;;;;;;2.15;1.58;;;10.70;99.90;;;;;;5049118;28;20159;-47
2022/07/11 00:31:29;;;;;;;2.75;1.30;;;10.70;99.90;;;;;;5031018;28;20020;-51
2022/07/11 00:33:55;;;;;;;2.38;1.60;;;10.70;99.90;;;;;;5048824;28;20052;-47
2022/07/11 00:36:21;;;;;;;3.33;1.30;;;10.70;99.90;;;;;;5048836;28;20087;-47
2022/07/11 00:38:46;;;;;;;4.15;1.92;;;10.70;99.90;;;;;;5031487;28;20049;-47
2022/07/11 00:41:12;;;;;;;3.97;1.75;;;10.70;99.90;;;;;;5048902;28;20017;-48
2022/07/11 00:43:39;;;;;;;1.50;1.40;;;10.60;99.90;;;;;;5048525;28;20033;-48
2022/07/11 00:46:06;;;;;;;7.10;1.92;;;10.60;99.90;;;;;;5049050;28;20045;-47
2022/07/11 00:48:32;;;;;;;2.72;1.65;;;10.60;99.90;;;;;;5048982;28;20029;-52
2022/07/11 00:50:59;;;;;;;4.43;1.85;;;10.50;99.90;;;;;;5048937;28;20028;-50
2022/07/11 00:53:25;;;;;;;6.88;2.28;;;10.50;99.90;;;;;;5048682;28;20032;-47
2022/07/11 00:55:52;;;;;;;3.58;1.45;;;10.50;99.90;;;;;;5030650;28;20036;-50
2022/07/11 00:58:18;;;;;;;5.65;1.83;;;10.50;99.90;;;;;;5047652;28;20036;-52
2022/07/11 01:00:44;;;;;;;2.85;1.60;;;10.50;99.90;;;;;;5046541;28;20071;-56
2022/07/11 01:03:10;;;;;;;2.10;1.30;;;10.50;99.90;;;;;;5046504;28;20020;-57
2022/07/11 01:05:36;;;;;;;2.25;1.35;;;10.40;99.90;;;;;;5029961;28;20033;-49
2022/07/11 01:08:01;;;;;;;1.50;1.40;;;10.40;99.90;;;;;;5048685;28;20052;-52
2022/07/11 01:10:27;;;;;;;4.25;1.55;;;10.40;99.90;;;;;;5048505;28;20017;-53
2022/07/11 01:12:53;;;;;;;2.88;1.77;;;10.40;99.90;;;;;;5030773;28;20483;-49
2022/07/11 01:15:19;;;;;;;4.85;1.77;;;10.30;99.90;;;;;;5048446;28;20035;-48
2022/07/11 01:17:44;;;;;;;1.27;1.10;;;10.30;99.90;;;;;;5048775;28;20033;-54
2022/07/11 01:20:11;;;;;;;3.42;1.40;;;10.30;99.90;;;;;;5048698;28;20387;-50
2022/07/11 01:22:43;;;;;;;1.98;1.58;;;10.30;99.90;;;;;;5048392;28;20190;-48
2022/07/11 01:25:09;;;;;;;2.28;1.63;;;10.30;99.90;;;;;;5047557;28;20029;-52
2022/07/11 01:27:35;;;;;;;6.32;1.33;;;10.30;99.90;;;;;;5048838;28;20029;-50
2022/07/11 01:30:02;;;;;;;2.75;1.02;;;10.20;99.90;;;;;;5048416;28;20115;-49
2022/07/11 01:32:27;;;;;;;3.67;1.30;;;10.10;99.90;;;;;;5048282;28;20154;-52
2022/07/11 01:34:53;;;;;;;2.92;1.77;;;10.10;99.90;;;;;;5048026;28;20115;-54
2022/07/11 01:37:18;;;;;;;1.33;1.10;;;10.10;99.90;;;;;;5048902;28;20083;-49
2022/07/11 01:39:44;;;;;;;2.05;0.90;;;10.10;99.90;;;;;;5048647;28;20040;-49
2022/07/11 01:42:09;;;;;;;3.55;1.50;;;10.00;99.90;;;;;;5047831;28;20025;-50
2022/07/11 01:44:35;;;;;;;2.65;1.50;;;10.00;99.90;;;;;;5043399;28;20021;-52
2022/07/11 01:47:01;;;;;;;1.92;1.27;;;10.00;99.90;;;;;;5048385;28;20450;-49
2022/07/11 01:49:29;;;;;;;2.25;1.38;;;10.00;99.90;;;;;;5048743;28;20426;-48
2022/07/11 01:51:56;;;;;;;3.40;1.95;;;9.90;99.90;;;;;;5047491;28;20043;-50
2022/07/11 01:54:21;;;;;;;1.42;1.05;;;9.90;99.90;;;;;;5048337;28;20036;-48
2022/07/11 01:56:47;;;;;;;3.60;1.23;;;9.90;99.90;;;;;;5048761;28;20025;-47
2022/07/11 01:59:13;;;;;;;2.08;0.98;;;9.90;99.90;;;;;;5048357;28;20510;-48
2022/07/11 02:01:39;;;;;;;1.60;1.27;;;9.90;99.90;;;;;;5048164;28;20571;-49
2022/07/11 02:04:05;;;;;;;5.45;1.50;;;9.90;99.90;;;;;;5048419;28;20027;-55
2022/07/11 02:06:31;;;;;;;4.10;1.50;;;9.90;99.90;;;;;;5048700;28;20386;-47
2022/07/11 02:08:56;;;;;;;4.13;1.52;;;9.90;99.90;;;;;;5030253;28;20025;-49
2022/07/11 02:11:23;;;;;;;1.40;1.23;;;10.00;99.90;;;;;;5047997;28;20029;-50
2022/07/11 02:13:49;;;;;;;2.97;1.40;;;9.90;99.90;;;;;;5048338;28;20036;-52
2022/07/11 02:16:15;;;;;;;3.25;1.58;;;9.90;99.90;;;;;;5032017;28;20047;-48
2022/07/11 02:18:40;;;;;;;3.70;1.45;;;10.00;99.90;;;;;;5047821;28;20152;-49
2022/07/11 02:21:06;;;;;;;2.60;1.60;;;9.90;99.90;;;;;;5051791;28;20394;-47
2022/07/11 02:23:32;;;;;;;3.67;1.95;;;10.00;99.90;;;;;;5045564;28;20029;-51
2022/07/11 02:25:57;;;;;;;3.00;1.25;;;10.00;99.90;;;;;;5032899;28;20112;-51
2022/07/11 02:28:23;;;;;;;1.92;1.30;;;9.90;99.90;;;;;;5048179;28;20025;-51
2022/07/11 02:30:49;;;;;;;2.70;1.30;;;9.90;99.90;;;;;;5032916;28;20677;-53
2022/07/11 02:33:15;;;;;;;1.50;1.25;;;9.90;99.90;;;;;;5051090;28;20136;-48
2022/07/11 02:35:46;;;;;;;2.90;1.23;;;9.90;99.90;;;;;;5045441;28;20460;-53
2022/07/11 02:38:12;;;;;;;4.72;1.60;;;9.80;99.90;;;;;;5051382;28;20025;-49
2022/07/11 02:40:37;;;;;;;4.03;1.50;;;9.80;99.90;;;;;;5051499;28;20029;-48
2022/07/11 02:43:03;;;;;;;6.28;1.67;;;9.80;99.90;;;;;;5051140;28;20384;-52
2022/07/11 02:45:29;;;;;;;1.70;1.27;;;9.80;99.90;;;;;;5051178;28;20029;-48
2022/07/11 02:47:54;;;;;;;2.97;1.42;;;9.80;99.90;;;;;;5051333;28;20032;-47
2022/07/11 02:50:20;;;;;;;5.00;1.38;;;9.80;99.90;;;;;;5051300;28;20020;-49
2022/07/11 02:52:46;;;;;;;3.30;1.38;;;9.80;99.90;;;;;;5044855;28;20025;-51
2022/07/11 02:55:12;;;;;;;4.40;1.15;;;9.80;99.90;;;;;;5051329;28;20029;-52
2022/07/11 02:57:39;;;;;;;1.60;1.50;;;9.80;99.90;;;;;;5051341;28;20031;-48
2022/07/11 03:00:07;;;;;;;2.45;1.00;;;9.80;99.90;;;;;;5016581;28;20029;-49
2022/07/11 03:02:33;;;;;;;3.33;1.38;;;9.80;99.90;;;;;;5050860;28;20017;-48
2022/07/11 03:04:58;;;;;;;2.70;1.33;;;9.80;99.90;;;;;;5051094;28;20036;-48
2022/07/11 03:07:28;;;;;;;5.25;1.70;;;9.80;99.90;;;;;;5050817;28;20233;-50
2022/07/11 03:09:54;;;;;;;2.20;1.30;;;9.80;99.90;;;;;;5051097;28;20376;-48
2022/07/11 03:12:20;;;;;;;2.40;1.48;;;9.80;99.90;;;;;;5050600;28;20025;-50
2022/07/11 03:14:46;;;;;;;2.47;1.58;;;9.80;99.90;;;;;;5050734;28;20473;-53
2022/07/11 03:17:11;;;;;;;4.35;2.13;;;9.70;99.90;;;;;;5051018;28;20096;-48
2022/07/11 03:19:37;;;;;;;1.92;1.65;;;9.70;99.90;;;;;;5050951;28;20025;-49
2022/07/11 03:22:04;;;;;;;3.17;1.80;;;9.70;99.90;;;;;;5050428;28;20025;-53
2022/07/11 03:24:30;;;;;;;6.10;2.00;;;9.70;99.90;;;;;;5050689;28;20017;-50
2022/07/11 03:26:55;;;;;;;7.25;2.05;;;9.70;99.90;;;;;;5044571;28;20033;-50
2022/07/11 03:29:21;;;;;;;2.72;1.27;;;9.70;99.90;;;;;;5049940;28;20029;-52
2022/07/11 03:31:47;;;;;;;2.83;1.58;;;9.70;99.90;;;;;;5049642;28;20074;-48
2022/07/11 03:34:13;;;;;;;1.80;1.65;;;9.70;99.90;;;;;;5050620;28;20064;-56
2022/07/11 03:36:38;;;;;;;1.92;1.67;;;9.70;99.90;;;;;;5050331;28;20033;-49
2022/07/11 03:39:04;;;;;;;2.30;1.40;;;9.70;99.90;;;;;;5032630;28;20032;-53
2022/07/11 03:41:29;;;;;;;1.70;1.60;;;9.70;99.90;;;;;;5049889;28;20272;-56
2022/07/11 03:43:56;;;;;;;4.78;1.50;;;9.70;99.90;;;;;;5050362;28;20021;-53
2022/07/11 03:46:23;;;;;;;3.65;1.30;;;9.70;99.90;;;;;;5049951;28;20439;-49
2022/07/11 03:48:48;;;;;;;3.10;1.35;;;9.70;99.90;;;;;;5050025;28;20028;-55
2022/07/11 03:51:15;;;;;;;1.70;1.48;;;9.70;99.90;;;;;;5049698;28;20670;-54
2022/07/11 03:53:40;;;;;;;1.73;1.20;;;9.70;99.90;;;;;;5050048;28;20075;-47
2022/07/11 03:56:06;;;;;;;3.20;1.38;;;9.70;99.90;;;;;;5049627;28;20033;-50
2022/07/11 03:58:33;;;;;;;2.47;1.40;;;9.60;99.90;;;;;;5050123;28;20075;-50
2022/07/11 04:00:58;;;;;;;4.15;1.52;;;9.70;99.90;;;;;;5049574;28;20141;-50
2022/07/11 04:03:25;;;;;;;2.13;1.40;;;9.70;99.90;;;;;;5049999;28;20021;-51
2022/07/11 04:05:51;;;;;;;2.35;1.13;;;9.70;99.90;;;;;;5049824;28;20021;-49
2022/07/11 04:08:17;;;;;;;3.30;1.45;;;9.70;99.90;;;;;;5049903;28;20025;-52
2022/07/11 04:10:42;;;;;;;5.15;1.65;;;9.70;99.90;;;;;;5045581;28;20005;-50
2022/07/11 04:13:08;;;;;;;2.42;1.35;;;9.70;99.90;;;;;;5049733;28;20082;-54
2022/07/11 04:15:34;;;;;;;2.05;1.90;;;9.70;99.90;;;;;;5030973;28;20517;-48
2022/07/11 04:17:59;;;;;;;2.67;1.40;;;9.70;99.90;;;;;;5031489;28;20021;-49
2022/07/11 04:20:25;;;;;;;1.92;1.17;;;9.70;99.90;;;;;;5049049;28;20137;-49
2022/07/11 04:22:50;;;;;;;2.17;1.67;;;9.70;99.90;;;;;;5048853;28;20101;-50
2022/07/11 04:25:16;;;;;;;2.10;1.50;;;9.70;99.90;;;;;;5049433;28;20321;-54
2022/07/11 04:27:41;;;;;;;2.28;1.58;;;9.70;99.90;;;;;;5043841;28;20032;-48
2022/07/11 04:30:08;;;;;;;3.88;1.48;;;9.80;99.90;;;;;;5049227;28;20028;-48
2022/07/11 04:32:35;;;;;;;1.48;1.33;;;9.80;99.90;;;;;;5048651;28;20507;-51
2022/07/11 04:35:01;;;;;;;1.50;1.40;;;9.80;99.90;;;;;;5048058;28;20098;-48
2022/07/11 04:37:27;;;;;;;1.45;1.35;;;9.80;99.90;;;;;;5049351;28;20025;-51
2022/07/11 04:39:52;;;;;;;3.15;1.40;;;9.80;99.90;;;;;;5049002;28;20147;-51
2022/07/11 04:42:18;;;;;;;3.25;1.38;;;9.90;99.90;;;;;;5048801;28;20108;-50
2022/07/11 04:44:44;;;;;;;4.78;1.60;;;9.90;99.90;;;;;;5049311;28;20215;-47
2022/07/11 04:47:09;;;;;;;7.57;2.22;;;10.00;99.90;;;;;;5049016;28;20100;-50
2022/07/11 04:49:35;;;;;;;3.63;1.83;;;10.00;99.90;;;;;;5048961;28;20033;-53
2022/07/11 04:52:01;;;;;;;2.92;1.70;;;10.10;99.90;;;;;;5048368;28;20031;-51
2022/07/11 04:54:26;;;;;;;3.17;1.88;;;10.10;99.90;;;;;;5048319;28;20044;-47
2022/07/11 04:56:52;;;;;;;2.72;1.80;;;10.10;99.90;;;;;;5048613;28;20399;-48
2022/07/11 04:59:18;;;;;;;2.33;1.77;;;10.20;99.90;;;;;;5048795;28;20052;-49
2022/07/11 05:01:44;;;;;;;2.30;1.52;;;10.20;99.90;;;;;;5048138;28;20029;-50
2022/07/11 05:04:10;;;;;;;3.83;1.77;;;10.30;99.90;;;;;;5030445;28;20395;-49
2022/07/11 05:06:35;;;;;;;4.22;2.17;;;10.40;99.90;;;;;;5048590;28;20075;-53
2022/07/11 05:09:02;;;;;;;4.15;2.22;;;10.60;99.90;;;;;;5048517;28;20456;-49
2022/07/11 05:11:27;;;;;;;5.57;2.20;;;10.70;99.90;;;;;;5047902;28;20025;-53
2022/07/11 05:13:53;;;;;;;5.50;2.10;;;10.90;99.90;;;;;;5048258;28;20108;-49
2022/07/11 05:16:18;;;;;;;4.70;1.65;;;11.00;99.90;;;;;;5048597;28;20479;-47
2022/07/11 05:18:44;;;;;;;6.43;2.63;;;11.10;99.90;;;;;;5048761;28;20081;-48
2022/07/11 05:21:10;;;;;;;6.13;2.05;;;11.20;99.90;;;;;;5047048;28;20029;-55
2022/07/11 05:23:35;;;;;;;7.30;2.00;;;11.30;99.90;;;;;;5048154;28;20033;-47
2022/07/11 05:26:01;;;;;;;6.32;2.60;;;11.30;99.90;;;;;;5048312;28;20037;-47
2022/07/11 05:28:26;;;;;;;7.07;2.60;;;11.40;99.90;;;;;;5043903;28;20053;-48
2022/07/11 05:30:52;;;;;;;8.48;2.25;;;11.40;99.90;;;;;;5048043;28;20112;-55
2022/07/11 05:33:17;;;;;;;16.80;2.92;;;11.60;99.90;;;;;;5047164;28;20082;-48
2022/07/11 05:35:43;;;;;;;6.15;1.98;;;11.70;99.90;;;;;;5048584;28;20032;-52
2022/07/11 05:38:09;;;;;;;8.85;2.05;;;11.80;99.90;;;;;;5048532;28;20040;-53
2022/07/11 05:40:34;;;;;;;4.22;1.88;;;11.90;99.90;;;;;;5030714;28;20029;-51
2022/07/11 05:43:00;;;;;;;7.43;2.88;;;12.00;99.90;;;;;;5047815;28;20025;-48
2022/07/11 05:45:26;;;;;;;7.85;2.92;;;12.10;99.90;;;;;;5048274;28;20016;-47
2022/07/11 05:47:52;;;;;;;3.70;1.65;;;12.30;99.90;;;;;;5048625;28;20029;-48
2022/07/11 05:50:17;;;;;;;15.80;2.97;;;12.40;99.90;;;;;;5048272;28;20083;-51
2022/07/11 05:52:43;;;;;;;9.95;2.53;;;12.60;99.90;;;;;;5052427;28;20029;-54
2022/07/11 05:55:08;;;;;;;11.80;1.73;;;12.80;99.90;;;;;;5052323;28;20025;-47
2022/07/11 05:57:34;;;;;;;3.78;1.73;;;13.00;99.90;;;;;;5052328;28;20021;-48
2022/07/11 05:59:59;;;;;;;8.38;2.03;;;13.10;99.90;;;;;;5052517;28;20479;-48
2022/07/11 06:02:25;;;;;;;6.78;1.52;;;13.30;99.90;;;;;;5052172;28;20045;-56
2022/07/11 06:04:51;;;;;;;4.55;1.33;;;13.40;99.90;;;;;;5051543;28;20040;-47
2022/07/11 06:08:40;;;;;;;9.90;1.77;;;13.60;99.90;;;;;;5052048;28;20490;-50
2022/07/11 06:10:02;;;;;;;3.95;1.50;;;13.70;99.90;;;;;;5052082;28;20116;-50
2022/07/11 06:12:28;;;;;;;12.50;1.83;;;13.90;99.90;;;;;;5050976;28;20535;-55
2022/07/11 06:14:53;;;;;;;10.20;2.00;;;14.00;99.90;;;;;;5047926;28;20033;-53
2022/07/11 06:17:19;;;;;;;3.08;1.77;;;14.20;99.90;;;;;;5051932;28;20191;-53
2022/07/11 06:19:44;;;;;;;5.75;1.40;;;14.20;99.90;;;;;;5051553;28;20112;-52
2022/07/11 06:22:11;;;;;;;5.10;1.42;;;14.40;99.90;;;;;;5050057;28;20025;-53
2022/07/11 06:24:37;;;;;;;2.08;1.08;;;14.50;99.90;;;;;;5051414;28;20021;-51
2022/07/11 06:27:04;;;;;;;3.05;1.48;;;14.70;99.90;;;;;;5059308;22;20507;-49
2022/07/11 06:29:30;;;;;;;3.88;1.35;;;14.90;99.90;;;;;;5051247;28;20099;-55
2022/07/11 06:31:56;;;;;;;7.28;1.33;;;15.00;99.90;;;;;;5032692;28;20460;-52
2022/07/11 06:34:21;;;;;;;2.60;1.00;;;15.10;99.90;;;;;;5051643;28;20025;-50
2022/07/11 06:36:47;;;;;;;6.85;1.77;;;15.30;99.90;;;;;;5050855;28;20075;-49
2022/07/11 06:39:13;;;;;;;3.97;1.35;;;15.40;99.90;;;;;;5033873;28;20025;-53
2022/07/11 06:41:39;;;;;;;4.30;1.73;;;15.50;99.90;;;;;;5050550;28;20033;-56
2022/07/11 06:44:04;;;;;;;11.90;1.58;;;15.60;99.90;;;;;;5051335;28;20084;-58
2022/07/11 06:46:30;;;;;;;3.53;1.10;;;15.70;99.90;;;;;;5051590;28;20506;-49
2022/07/11 06:48:55;;;;;;;2.50;0.90;;;15.70;99.90;;;;;;5050983;28;20028;-53
2022/07/11 06:51:22;;;;;;;4.45;1.15;;;15.70;99.90;;;;;;5050649;28;20061;-52
2022/07/11 06:53:47;;;;;;;5.55;1.27;;;15.90;99.90;;;;;;5050929;28;20135;-54
2022/07/11 06:56:13;;;;;;;4.43;1.20;;;16.00;99.90;;;;;;5050150;28;20025;-55
2022/07/11 06:58:39;;;;;;;10.00;1.55;;;16.20;99.90;;;;;;5050746;28;20032;-55
2022/07/11 07:01:06;;;;;;;4.72;1.00;;;16.50;99.90;;;;;;5049915;28;20033;-52
2022/07/11 07:03:33;;;;;;;5.30;2.42;;;16.60;99.90;;;;;;5049221;28;20100;-53
2022/07/11 07:06:00;;;;;;;2.00;1.17;;;16.70;99.90;;;;;;5050399;28;20685;-52
2022/07/11 07:08:26;;;;;;;3.95;1.13;;;16.90;99.90;;;;;;5050976;28;20021;-53
2022/07/11 07:10:52;;;;;;;2.97;1.42;;;17.10;99.90;;;;;;5033214;28;20451;-52
2022/07/11 07:13:20;;;;;;;4.80;1.20;;;17.20;99.90;;;;;;5027846;28;20025;-54
2022/07/11 07:15:46;;;;;;;6.88;1.17;;;17.20;99.90;;;;;;5050006;28;20013;-55
2022/07/11 07:18:12;;;;;;;9.27;1.38;;;17.20;99.90;;;;;;5050260;28;20021;-57
2022/07/11 07:20:38;;;;;;;2.97;1.13;;;17.20;99.90;;;;;;5050710;28;20392;-55
2022/07/11 07:23:03;;;;;;;8.50;1.52;;;17.20;99.90;;;;;;5031584;28;20040;-51
2022/07/11 07:25:29;;;;;;;4.50;1.48;;;17.40;99.90;;;;;;5050871;28;20155;-49
2022/07/11 07:27:54;;;;;;;4.32;1.02;;;17.70;99.90;;;;;;5030713;28;20075;-50
2022/07/11 07:30:20;;;;;;;3.70;0.60;;;17.90;99.90;;;;;;5049464;28;20028;-57
2022/07/11 07:32:45;;;;;;;4.22;0.80;;;18.00;99.90;;;;;;5048410;28;20033;-50
2022/07/11 07:35:11;;;;;;;1.77;0.77;;;18.10;99.90;;;;;;5049858;28;20104;-52
2022/07/11 07:37:37;;;;;;;4.85;0.90;;;18.00;99.90;;;;;;5050261;28;20395;-50
2022/07/11 07:40:03;;;;;;;6.88;1.48;;;18.10;99.90;;;;;;5030990;28;20037;-51
2022/07/11 07:42:28;;;;;;;1.50;0.55;;;18.30;99.90;;;;;;5049714;28;20542;-53
2022/07/11 07:44:54;;;;;;;0.80;0.50;;;18.40;99.90;;;;;;5049817;28;20029;-54
2022/07/11 07:47:20;;;;;;;7.53;1.63;;;18.50;99.90;;;;;;5049218;28;20106;-57
2022/07/11 07:49:45;;;;;;;1.00;0.60;;;18.60;99.90;;;;;;5050525;28;20052;-52
2022/07/11 07:52:11;;;;;;;1.50;0.82;;;18.90;99.90;;;;;;5032034;28;20013;-56
2022/07/11 07:54:37;;;;;;;2.10;0.70;;;19.10;99.90;;;;;;5050499;28;20233;-56
2022/07/11 07:57:02;;;;;;;1.02;0.73;;;19.30;99.90;;;;;;5049975;28;20400;-49
2022/07/11 07:59:28;;;;;;;1.63;0.77;;;19.60;99.90;;;;;;5050473;28;20047;-54
2022/07/11 08:01:54;;;;;;;3.28;0.68;;;19.80;99.90;;;;;;5031731;28;20028;-53
2022/07/11 08:04:19;;;;;;;3.50;0.55;;;19.80;99.90;;;;;;5049889;28;20491;-51
2022/07/11 08:06:45;;;;;;;0.93;0.73;;;19.90;99.90;;;;;;5050194;28;20021;-56
2022/07/11 08:09:12;;;;;;;2.65;0.88;;;20.10;99.90;;;;;;5049918;28;20031;-50
2022/07/11 08:11:37;;;;;;;1.23;1.08;;;20.20;99.90;;;;;;5049390;28;20090;-53
2022/07/11 08:14:04;;;;;;;3.90;1.73;;;20.00;99.90;;;;;;5030865;28;20029;-56
2022/07/11 08:16:31;;;;;;;2.03;0.63;;;20.00;99.90;;;;;;5049844;28;20032;-56
2022/07/11 08:18:58;;;;;;;4.55;1.23;;;20.10;99.90;;;;;;5049545;28;20086;-51
2022/07/11 08:21:25;;;;;;;4.15;1.08;;;20.30;99.90;;;;;;5049623;28;20032;-54
2022/07/11 08:23:50;;;;;;;1.27;1.00;;;20.50;99.90;;;;;;5049898;28;20426;-52
2022/07/11 08:26:16;;;;;;;3.78;0.73;;;20.50;99.90;;;;;;5049925;28;20017;-52
2022/07/11 08:28:42;;;;;;;8.32;1.00;;;20.70;99.90;;;;;;5049904;28;20075;-56
2022/07/11 08:31:08;;;;;;;2.45;0.73;;;20.60;99.90;;;;;;5049466;28;20090;-50
2022/07/11 08:33:34;;;;;;;2.15;0.73;;;20.80;99.90;;;;;;5057023;28;20025;-53
2022/07/11 08:35:59;;;;;;;2.35;1.00;;;20.70;99.90;;;;;;5048623;28;20051;-57
2022/07/11 08:38:25;;;;;;;3.67;1.42;;;20.50;99.90;;;;;;5049386;28;20039;-51
2022/07/11 08:40:51;;;;;;;2.20;0.82;;;20.20;99.90;;;;;;5049243;28;20044;-58
2022/07/11 08:43:17;;;;;;;3.03;0.77;;;20.30;99.90;;;;;;5049531;28;20017;-56
2022/07/11 08:45:44;;;;;;;3.72;0.50;;;20.60;99.90;;;;;;5049373;28;20031;-54
2022/07/11 08:48:09;;;;;;;3.17;1.02;;;20.90;99.90;;;;;;5048937;28;20100;-54
2022/07/11 08:50:36;;;;;;;4.45;0.70;;;21.00;99.90;;;;;;5049283;28;20564;-57
2022/07/11 08:53:03;;;;;;;1.42;0.60;;;21.10;99.90;;;;;;5048797;28;20021;-52
2022/07/11 08:55:29;;;;;;;1.40;0.85;;;21.30;99.90;;;;;;5049583;28;20056;-49
2022/07/11 08:57:55;;;;;;;3.05;0.77;;;21.50;99.90;;;;;;5049302;28;20432;-52
2022/07/11 09:00:21;;;;;;;0.95;0.50;;;21.20;99.90;;;;;;5060419;28;20130;-56
2022/07/11 09:02:49;;;;;;;2.65;0.85;;;21.30;99.90;;;;;;5030470;28;20052;-53
2022/07/11 09:05:15;;;;;;;2.78;0.88;;;21.10;99.90;;;;;;5043597;28;20067;-53
2022/07/11 09:07:49;;;;;;;4.57;0.90;;;20.90;99.90;;;;;;5048882;28;20029;-56
2022/07/11 09:10:17;;;;;;;1.05;0.65;;;21.00;99.90;;;;;;5042137;28;20411;-53
2022/07/11 09:13:08;;;;;;;0.63;0.60;;;21.30;99.90;;;;;;5049007;28;20082;-53
2022/07/11 09:15:38;;;;;;;2.25;0.60;;;21.70;99.80;;;;;;5043563;28;20027;-56
2022/07/11 09:18:06;;;;;;;2.00;0.73;;;22.00;99.90;;;;;;5049007;28;20033;-55
2022/07/11 09:26:39;;;;;;;;;;;22.00;97.80;;;;;;5046546;28;20075;-53
2022/07/11 09:29:11;;;;;;;2.28;0.90;;;21.80;98.70;;;;;;5052961;28;19958;-54
2022/07/11 09:31:38;;;;;;;1.85;0.57;;;21.60;98.60;;;;;;5052564;28;20049;-55
2022/07/11 09:34:05;;;;;;;3.25;0.80;;;21.50;98.90;;;;;;5052665;28;20074;-52
2022/07/11 09:36:54;;;;;;;3.25;0.85;;;21.70;99.70;;;;;;5034650;28;20047;-50
2022/07/11 09:39:25;;;;;;;2.92;0.50;;;22.00;99.20;;;;;;5045597;28;20025;-56
2022/07/11 09:41:52;;;;;;;3.72;0.90;;;22.30;98.20;;;;;;5052352;28;20048;-52
2022/07/11 09:44:27;;;;;;;1.35;0.80;;;22.50;97.50;;;;;;5052775;28;20029;-53
2022/07/11 09:46:53;;;;;;;1.77;0.40;;;22.80;98.20;;;;;;5034393;28;20025;-52
2022/07/11 09:49:29;;;;;;;2.25;0.70;;;22.70;95.90;;;;;;5034645;28;20017;-57
2022/07/11 09:51:56;;;;;;;1.20;0.50;;;22.30;95.50;;;;;;5034149;28;20028;-50
2022/07/11 09:54:22;;;;;;;0.50;0.45;;;21.90;96.30;;;;;;5052401;28;20386;-51
2022/07/11 09:56:51;;;;;;;1.10;0.55;;;21.80;95.60;;;;;;5052110;28;20111;-57
2022/07/11 09:59:17;;;;;;;1.13;0.40;;;21.70;95.70;;;;;;5044608;28;20079;-50
2022/07/11 10:01:44;;;;;;;0.90;0.50;;;21.70;96.70;;;;;;5051816;28;20080;-51
2022/07/11 10:04:11;;;;;;;0.68;0.45;;;21.70;96.80;;;;;;5050952;28;20021;-53
2022/07/11 10:06:38;;;;;;;2.55;0.60;;;21.90;96.70;;;;;;5034248;28;20028;-56
2022/07/11 10:09:05;;;;;;;1.98;0.40;;;21.90;97.60;;;;;;5051848;28;20468;-53
2022/07/11 10:11:32;;;;;;;0.98;0.57;;;22.00;97.50;;;;;;5052169;28;20593;-55
2022/07/11 10:14:03;;;;;;;1.35;0.55;;;22.20;97.80;;;;;;5051647;28;20071;-53
2022/07/11 10:16:45;;;;;;;2.05;0.90;;;22.30;96.70;;;;;;5052133;28;20483;-56
2022/07/11 10:19:27;;;;;;;1.73;0.88;;;22.10;96.10;;;;;;5052091;28;20032;-58
2022/07/11 10:22:25;;;;;;;1.77;0.60;;;21.90;96.50;;;;;;5051858;28;20029;-51
2022/07/11 10:25:07;;;;;;;2.20;0.70;;;21.80;97.10;;;;;;5048573;28;20021;-52
2022/07/11 10:27:44;;;;;;;5.60;1.27;;;22.00;99.30;;;;;;5051519;28;20530;-54
2022/07/11 10:30:09;;;;;;;4.88;1.08;;;22.10;96.70;;;;;;5050779;28;20515;-56
2022/07/11 10:32:59;;;;;;;4.60;0.85;;;22.20;95.90;;;;;;5050119;28;20072;-50
2022/07/11 10:35:29;;;;;;;1.73;0.50;;;22.40;96.80;;;;;;5039242;28;20041;-51
2022/07/11 10:37:54;;;;;;;1.88;0.57;;;22.60;96.80;;;;;;5051320;28;20111;-50
2022/07/11 10:40:50;;;;;;;2.83;0.50;;;22.60;97.00;;;;;;5051058;28;20105;-54
2022/07/11 10:43:22;;;;;;;1.88;0.30;;;22.50;96.10;;;;;;5027507;28;20447;-53
2022/07/11 10:46:04;;;;;;;1.40;0.50;;;22.30;96.40;;;;;;5051237;28;20025;-57
2022/07/11 10:48:32;;;;;;;1.73;0.68;;;22.20;96.60;;;;;;5047129;28;20083;-53
2022/07/11 10:51:08;;;;;;;2.00;0.43;;;21.90;96.50;;;;;;5031608;28;20392;-58
2022/07/11 10:53:46;;;;;;;1.45;0.50;;;21.90;98.10;;;;;;5050878;28;20102;-52
2022/07/11 10:56:39;;;;;;;0.68;0.57;;;21.80;97.40;;;;;;5049353;28;20801;-55
2022/07/11 10:59:17;;;;;;;2.55;0.47;;;21.80;97.70;;;;;;5051156;28;20412;-54
2022/07/11 11:02:04;;;;;;;1.38;0.57;;;21.70;98.50;;;;;;5050667;28;20025;-58
2022/07/11 11:04:58;;;;;;;2.83;1.00;;;21.80;97.30;;;;;;5046737;28;20383;-52
2022/07/11 11:07:41;;;;;;;1.23;0.65;;;21.80;97.80;;;;;;5049858;28;20017;-54
2022/07/11 11:10:19;;;;;;;2.03;0.68;;;21.90;97.40;;;;;;5032329;28;20039;-57
2022/07/11 11:13:06;;;;;;;2.38;0.52;;;22.10;96.30;;;;;;5032216;28;20024;-50
2022/07/11 11:15:45;;;;;;;0.80;0.32;;;22.10;96.80;;;;;;5045557;28;20099;-54
2022/07/11 11:18:25;;;;;;;1.55;0.50;;;22.00;96.30;;;;;;5050747;28;20651;-54
2022/07/11 11:21:02;;;;;;;0.70;0.38;;;21.90;97.70;;;;;;5050319;28;20036;-54
2022/07/11 11:23:33;;;;;;;4.25;0.88;;;21.90;97.50;;;;;;5049432;28;20021;-52
2022/07/11 11:26:10;;;;;;;1.48;0.50;;;21.70;97.50;;;;;;5050744;28;20494;-51
2022/07/11 11:28:37;;;;;;;1.77;0.70;;;21.80;99.10;;;;;;5045540;28;20033;-56
2022/07/11 11:31:05;;;;;;;1.08;0.90;;;22.00;99.10;;;;;;5051003;28;20052;-54
2022/07/11 11:33:36;;;;;;;0.95;0.88;;;22.10;98.70;;;;;;5050517;28;20032;-51
2022/07/11 11:36:03;;;;;;;1.52;0.60;;;22.10;98.20;;;;;;5050513;28;20056;-53
2022/07/11 11:38:33;;;;;;;1.45;0.85;;;22.10;97.50;;;;;;5050454;28;20033;-53
2022/07/11 11:40:59;;;;;;;0.50;0.40;;;22.20;96.90;;;;;;5050299;28;20491;-53
2022/07/11 11:43:25;;;;;;;2.25;0.40;;;22.30;97.00;;;;;;5050045;28;20020;-54
2022/07/11 11:45:52;;;;;;;1.00;0.32;;;22.50;95.70;;;;;;5049898;28;20146;-55
2022/07/11 11:48:35;;;;;;;1.02;0.70;;;22.50;95.70;;;;;;5049156;28;20146;-58
2022/07/11 11:51:06;;;;;;;2.10;0.68;;;22.50;95.40;;;;;;5050369;28;20052;-54
2022/07/11 11:53:54;;;;;;;4.45;0.93;;;22.50;96.30;;;;;;5050098;28;20029;-53
2022/07/11 11:56:21;;;;;;;1.95;0.60;;;22.60;95.80;;;;;;5042757;28;20021;-55
2022/07/11 11:58:48;;;;;;;0.52;0.52;;;22.60;95.30;;;;;;5047577;28;20049;-51
2022/07/11 12:01:20;;;;;;;0.65;0.50;;;22.40;95.60;;;;;;5039378;28;20028;-53
2022/07/11 12:03:47;;;;;;;1.25;0.90;;;22.10;95.60;;;;;;5046115;28;20025;-53
2022/07/11 12:06:12;;;;;;;2.47;1.00;;;21.90;96.10;;;;;;5047577;28;20397;-55
2022/07/11 12:08:38;;;;;;;1.80;1.13;;;21.80;97.10;;;;;;5043716;28;20033;-51
2022/07/11 12:11:03;;;;;;;1.83;1.67;;;22.00;97.30;;;;;;5046634;28;20020;-54
2022/07/11 12:13:29;;;;;;;3.38;1.88;;;22.10;97.20;;;;;;5051556;28;20106;-53
2022/07/11 12:18:39;;;;;;;0.88;0.70;;;22.50;97.70;;;;;;5048583;28;20125;-55
2022/07/11 12:21:12;;;;;;;0.77;0.75;;;22.70;95.90;;;;;;5045316;28;20052;-55
2022/07/11 12:23:39;;;;;;;1.33;1.23;;;22.80;96.40;;;;;;5046987;28;20082;-54
2022/07/11 12:26:04;;;;;;;2.33;1.08;;;22.90;95.40;;;;;;5046020;28;20017;-51
2022/07/11 12:28:32;;;;;;;1.42;1.33;;;22.70;95.50;;;;;;5053976;22;20392;-53
2022/07/11 12:30:58;;;;;;;4.43;1.75;;;22.40;96.10;;;;;;5028866;28;20104;-51
2022/07/11 12:33:23;;;;;;;8.98;1.58;;;22.30;95.50;;;;;;5028145;28;20104;-50
2022/07/11 12:35:57;;;;;;;1.50;1.20;;;22.20;95.50;;;;;;5028825;28;20026;-55
2022/07/11 12:38:23;;;;;;;1.10;1.10;;;22.30;94.80;;;;;;5024727;28;20030;-52
2022/07/11 12:41:05;;;;;;;0.90;0.90;;;22.40;94.40;;;;;;5009513;28;20044;-51
2022/07/11 12:46:25;;;;;;;1.48;0.90;;;22.80;93.90;;;;;;5009743;28;20120;-48
2022/07/11 12:48:51;;;;;;;1.15;0.90;;;23.00;94.70;;;;;;5009407;28;20026;-50
2022/07/11 12:51:47;;;;;;;3.28;0.80;;;23.10;93.40;;;;;;5009195;28;20109;-54
2022/07/11 12:54:16;;;;;;;0.70;0.68;;;23.20;93.60;;;;;;5008615;28;20037;-50
2022/07/11 12:57:01;;;;;;;1.38;0.77;;;23.10;93.50;;;;;;4992044;28;20080;-52
2022/07/11 12:59:27;;;;;;;0.75;0.68;;;22.80;93.70;;;;;;5009245;28;20435;-51
2022/07/11 13:01:54;;;;;;;1.65;0.85;;;22.80;93.60;;;;;;5007987;28;20528;-49
2022/07/11 13:04:33;;;;;;;2.17;1.23;;;22.90;94.60;;;;;;5009434;28;20145;-52